Weather at Searchlight Airport

Public forecast

Using degrees Fahrenheit for public forecast. Weather courtesy of forecast.io.

Closest aviation weather report (METAR) to Searchlight Airport

Closest report is Laughlin Bullhead International Airport, 24.3 nm (45.0 km) SE. Retrieved 2021/07/26 21:52 UTC (1 hour ago):

KIFP 262152Z 22010KT 10SM SCT120 35/18 A2988

Closest aviation forecast (TAF) to Searchlight Airport

Closest forecast is Laughlin Bullhead International Airport, 24.3 nm (45.0 km) SE. Retrieved 2021/07/26 18:22 UTC (5 hours ago):

TAF KIFP 261720Z 2618/2718 21009KT P6SM SCT060 BKN120 FM270200 17008KT P6SM SCT060 FM270600 VRB06KT P6SM SCT100 FM271400 19008KT P6SM SCT100